Time;durP1;ratioP1;P1;durP2;ratioP2;P2;SDS_P1;SDS_P2;PMS_P1;PMS_P2;Temp;Humidity;BMP_temperature;BMP_pressure;BME280_temperature;BME280_humidity;BME280_pressure;Samples;Min_cycle;Max_cycle;Signal;HPM_P1;HPM_P2
2021/09/04 00:01:11;;;;;;;10.38;9.48;;;13.30;99.90;;;14.07;88.08;98065.00;5255801;28;20231;-55
2021/09/04 00:03:50;;;;;;;10.57;9.40;;;13.20;99.90;;;14.07;86.85;98065.00;5254175;28;20282;-59
2021/09/04 00:06:24;;;;;;;10.00;9.10;;;13.20;99.90;;;14.04;87.27;98057.16;5247259;28;20197;-54
2021/09/04 00:08:57;;;;;;;9.95;9.05;;;13.20;99.90;;;14.04;87.50;98054.59;5247897;28;20227;-50
2021/09/04 00:11:31;;;;;;;9.85;9.05;;;13.20;99.90;;;14.00;88.30;98049.25;5265771;28;20207;-53
2021/09/04 00:14:04;;;;;;;9.52;8.73;;;13.10;99.90;;;13.97;86.85;98050.88;5253007;28;20192;-54
2021/09/04 00:16:37;;;;;;;9.68;8.88;;;13.10;99.90;;;13.92;87.39;98049.75;5264074;28;20250;-55
2021/09/04 00:19:10;;;;;;;9.48;8.68;;;13.10;99.90;;;13.89;87.52;98053.88;5260803;28;20226;-53
2021/09/04 00:21:44;;;;;;;9.57;8.73;;;13.10;99.90;;;13.90;86.84;98050.50;5264357;28;20220;-53
2021/09/04 00:24:17;;;;;;;9.88;9.07;;;13.10;99.90;;;13.79;87.51;98042.28;5254161;28;20202;-53
2021/09/04 00:26:50;;;;;;;9.90;8.93;;;13.00;99.90;;;13.75;87.76;98035.25;5270503;28;20665;-53
2021/09/04 00:29:23;;;;;;;10.30;9.40;;;12.90;99.90;;;13.74;87.70;98036.06;5261872;28;20692;-51
2021/09/04 00:31:56;;;;;;;10.55;9.63;;;12.90;99.90;;;13.72;88.12;98025.69;5253006;28;20203;-54
2021/09/04 00:34:29;;;;;;;8.50;7.80;;;12.90;99.90;;;13.75;87.00;98036.13;5248953;28;20197;-52
2021/09/04 00:37:05;;;;;;;10.70;9.68;;;12.90;99.90;;;13.72;87.38;98035.09;5249214;28;20197;-53
2021/09/04 00:39:38;;;;;;;10.10;9.20;;;12.90;99.90;;;13.70;88.65;98035.00;5249764;28;20223;-53
2021/09/04 00:42:12;;;;;;;10.75;9.85;;;12.90;99.90;;;13.70;88.80;98036.72;5249087;28;20204;-55
2021/09/04 00:44:45;;;;;;;10.35;9.43;;;13.00;99.90;;;13.65;88.51;98033.94;5257971;28;20195;-52
2021/09/04 00:47:18;;;;;;;10.88;9.98;;;12.90;99.90;;;13.68;89.12;98028.06;5266896;28;20203;-52
2021/09/04 00:49:51;;;;;;;10.93;9.95;;;12.90;99.90;;;13.68;88.44;98030.63;5269881;28;20314;-55
2021/09/04 00:52:26;;;;;;;11.45;10.45;;;12.80;99.90;;;13.67;89.42;98032.31;5266034;28;20218;-56
2021/09/04 00:54:59;;;;;;;10.48;9.48;;;12.80;99.90;;;13.60;88.85;98022.56;5248509;28;20200;-52
2021/09/04 00:57:32;;;;;;;10.25;9.35;;;12.80;99.90;;;13.61;89.98;98023.44;5253885;28;20211;-52
2021/09/04 01:00:07;;;;;;;10.88;9.90;;;12.80;99.90;;;13.61;89.05;98026.88;5269172;28;20228;-53
2021/09/04 01:02:40;;;;;;;11.32;10.10;;;12.80;99.90;;;13.60;90.45;98024.25;5249048;28;20742;-55
2021/09/04 01:05:13;;;;;;;10.55;9.50;;;12.90;99.90;;;13.55;89.43;98034.28;5249659;28;20708;-57
2021/09/04 01:07:49;;;;;;;9.70;8.70;;;12.70;99.90;;;13.51;88.78;98023.00;5257749;28;20677;-55
2021/09/04 01:10:22;;;;;;;9.55;8.75;;;12.60;99.90;;;13.50;88.64;98023.78;5248100;28;20228;-55
2021/09/04 01:12:55;;;;;;;11.27;10.07;;;12.60;99.90;;;13.42;89.45;98025.13;5249519;28;20197;-52
2021/09/04 01:15:29;;;;;;;9.75;8.82;;;12.60;99.90;;;13.41;89.39;98023.34;5248130;28;20671;-54
2021/09/04 01:18:02;;;;;;;11.63;10.50;;;12.60;99.90;;;13.38;89.40;98023.19;5260411;28;20203;-52
2021/09/04 01:20:35;;;;;;;10.73;9.73;;;12.60;99.90;;;13.33;89.11;98023.78;5247521;28;20230;-52
2021/09/04 01:23:10;;;;;;;10.48;9.50;;;12.50;99.90;;;13.29;88.81;98023.63;5248765;28;20203;-51
2021/09/04 01:25:45;;;;;;;10.40;9.40;;;12.50;99.90;;;13.32;89.96;98020.34;5247709;28;20208;-52
2021/09/04 01:28:20;;;;;;;11.35;10.35;;;12.50;99.90;;;13.38;90.59;98023.19;5251132;28;20200;-52
2021/09/04 01:30:53;;;;;;;10.93;10.02;;;12.60;99.90;;;13.38;89.27;98022.31;5248195;28;20215;-55
2021/09/04 01:33:26;;;;;;;10.48;9.57;;;12.60;99.90;;;13.28;89.16;98021.00;5248319;28;20204;-56
2021/09/04 01:35:59;;;;;;;10.32;9.45;;;12.50;99.90;;;13.22;88.20;98016.41;5254557;28;20664;-56
2021/09/04 01:38:32;;;;;;;9.65;8.80;;;12.40;99.90;;;13.25;88.35;98010.56;5269128;28;20203;-56
2021/09/04 01:41:05;;;;;;;10.30;9.32;;;12.40;99.90;;;13.23;89.02;98012.16;5267992;28;20711;-54
2021/09/04 01:43:40;;;;;;;10.45;9.55;;;12.50;99.90;;;13.13;88.86;98004.81;5254330;28;20915;-52
2021/09/04 01:46:13;;;;;;;10.70;9.80;;;12.40;99.90;;;13.16;88.94;98010.09;5268296;28;20205;-52
2021/09/04 01:48:46;;;;;;;10.18;9.38;;;12.40;99.90;;;13.11;88.69;98009.88;5258503;28;20686;-54
2021/09/04 01:51:20;;;;;;;11.00;10.00;;;12.30;99.90;;;13.15;89.36;98014.34;5255627;28;20192;-51
2021/09/04 01:53:53;;;;;;;12.18;10.25;;;12.40;99.90;;;13.10;89.17;98009.78;5267930;28;20210;-53
2021/09/04 01:56:26;;;;;;;10.88;9.90;;;12.30;99.90;;;13.03;88.84;98004.34;5247778;28;20587;-52
2021/09/04 01:59:01;;;;;;;11.13;10.02;;;12.20;99.90;;;12.98;89.12;98005.81;5247451;28;20701;-54
2021/09/04 02:01:34;;;;;;;10.98;9.98;;;12.10;99.90;;;12.91;90.10;97997.75;5268126;28;20215;-52
2021/09/04 02:04:07;;;;;;;10.80;9.90;;;12.20;99.90;;;12.94;90.54;98000.47;5266915;28;20199;-53
2021/09/04 02:06:40;;;;;;;11.25;10.15;;;12.20;99.90;;;12.93;89.95;97999.56;5251153;28;20547;-51
2021/09/04 02:09:13;;;;;;;10.50;9.57;;;12.20;99.90;;;12.91;89.90;98002.88;5262826;28;20216;-53
2021/09/04 02:11:46;;;;;;;10.80;9.85;;;12.20;99.90;;;12.97;90.60;97998.91;5247651;28;20201;-52
2021/09/04 02:14:21;;;;;;;10.30;9.40;;;12.20;99.90;;;12.98;89.89;97999.78;5266752;28;20200;-55
2021/09/04 02:16:54;;;;;;;9.90;9.05;;;12.20;99.90;;;12.98;89.16;97998.09;5267371;28;20206;-53
2021/09/04 02:19:27;;;;;;;9.30;8.48;;;12.10;99.90;;;13.00;89.51;97999.06;5266840;28;20223;-52
2021/09/04 02:22:00;;;;;;;10.35;9.35;;;12.20;99.90;;;12.94;88.68;97997.91;5246876;28;20216;-51
2021/09/04 02:24:33;;;;;;;10.93;9.93;;;12.10;99.90;;;12.93;89.43;98007.25;5247078;28;20211;-51
2021/09/04 02:27:06;;;;;;;10.43;9.52;;;12.20;99.90;;;12.96;89.56;98001.41;5246850;28;20205;-52
2021/09/04 02:29:41;;;;;;;11.32;10.32;;;12.10;99.90;;;13.00;88.65;97998.19;5247288;28;20705;-51
2021/09/04 02:32:14;;;;;;;11.82;10.75;;;12.10;99.90;;;12.94;89.98;97988.50;5246995;28;20192;-50
2021/09/04 02:34:47;;;;;;;10.90;9.93;;;12.10;99.90;;;12.95;90.12;97990.25;5256298;28;20195;-53
2021/09/04 02:37:20;;;;;;;11.35;10.35;;;12.20;99.90;;;12.91;90.47;97993.50;5264954;28;20191;-53
2021/09/04 02:39:53;;;;;;;10.90;9.90;;;12.10;99.90;;;12.92;88.85;97999.50;5255396;28;20224;-53
2021/09/04 02:42:26;;;;;;;9.73;8.90;;;12.10;99.90;;;12.86;89.08;97997.50;5246374;28;20222;-50
2021/09/04 02:45:00;;;;;;;10.60;9.60;;;12.00;99.90;;;12.83;89.31;97994.78;5265298;28;20195;-52
2021/09/04 02:47:35;;;;;;;10.88;9.88;;;12.00;99.90;;;12.85;89.80;97993.19;5261820;28;20200;-51
2021/09/04 02:50:09;;;;;;;11.85;10.73;;;12.00;99.90;;;12.87;89.28;97996.69;5246889;28;20220;-51
2021/09/04 02:52:42;;;;;;;11.23;10.13;;;12.00;99.90;;;12.81;89.55;97992.13;5247823;28;20197;-53
2021/09/04 02:55:15;;;;;;;10.40;9.50;;;12.00;99.90;;;12.76;89.68;97991.03;5253014;28;20188;-51
2021/09/04 02:57:48;;;;;;;11.23;10.20;;;11.90;99.90;;;12.74;90.20;97989.19;5267390;28;20200;-56
2021/09/04 03:00:22;;;;;;;10.30;9.43;;;11.90;99.90;;;12.71;90.36;97992.50;5262473;28;20219;-50
2021/09/04 03:02:55;;;;;;;10.55;9.50;;;11.90;99.90;;;12.72;90.64;97993.38;5266961;28;20219;-50
2021/09/04 03:05:30;;;;;;;9.55;8.73;;;11.90;99.90;;;12.71;89.59;97987.34;5256130;28;20204;-52
2021/09/04 03:08:04;;;;;;;10.55;9.68;;;11.90;99.90;;;12.69;89.62;97994.09;5245999;28;20313;-58
2021/09/04 03:10:37;;;;;;;10.07;9.23;;;11.90;99.90;;;12.67;89.54;97987.09;5256748;28;20218;-51
2021/09/04 03:13:10;;;;;;;10.50;9.60;;;11.80;99.90;;;12.66;89.38;97980.22;5246554;28;20201;-55
2021/09/04 03:15:45;;;;;;;10.60;9.60;;;11.90;99.90;;;12.65;89.69;97989.63;5246331;28;20209;-59
2021/09/04 03:18:19;;;;;;;10.90;9.80;;;11.90;99.90;;;12.65;89.93;97987.06;5246562;28;20673;-57
2021/09/04 03:20:52;;;;;;;10.40;9.45;;;11.90;99.90;;;12.64;90.28;97982.69;5246220;28;20228;-56
2021/09/04 03:23:25;;;;;;;10.48;9.57;;;11.80;99.90;;;12.63;89.76;97986.97;5259842;28;20221;-53
2021/09/04 03:25:58;;;;;;;11.27;10.13;;;11.80;99.90;;;12.56;89.35;97986.56;5247800;28;20202;-56
2021/09/04 03:28:32;;;;;;;10.82;9.48;;;11.70;99.90;;;12.50;89.81;97988.81;5246575;28;20588;-52
2021/09/04 03:31:06;;;;;;;10.00;9.00;;;11.70;99.90;;;12.48;90.14;97991.31;5246195;28;20199;-54
2021/09/04 03:33:39;;;;;;;9.02;8.23;;;11.70;99.90;;;12.48;89.70;97991.31;5246261;28;20207;-55
2021/09/04 03:36:12;;;;;;;9.80;8.90;;;11.70;99.90;;;12.50;89.15;97992.25;5247364;28;20246;-50
2021/09/04 03:38:46;;;;;;;10.68;9.68;;;11.60;99.90;;;12.47;89.77;97988.66;5246014;28;20208;-54
2021/09/04 03:41:19;;;;;;;9.80;8.90;;;11.60;99.90;;;12.48;89.30;97993.88;5250296;28;20191;-54
2021/09/04 03:43:52;;;;;;;9.23;8.32;;;11.60;99.90;;;12.47;88.99;97986.97;5254467;28;20685;-53
2021/09/04 03:46:26;;;;;;;10.18;9.32;;;11.60;99.90;;;12.44;89.10;97994.50;5253130;28;20295;-55
2021/09/04 03:49:02;;;;;;;9.85;8.88;;;11.60;99.90;;;12.45;89.69;97990.25;5269090;28;20215;-52
2021/09/04 03:51:35;;;;;;;10.45;9.55;;;11.60;99.90;;;12.42;89.19;97995.22;5250427;28;20200;-52
2021/09/04 03:54:08;;;;;;;9.93;9.02;;;11.60;99.90;;;12.39;89.05;97990.84;5250045;28;20230;-51
2021/09/04 03:56:41;;;;;;;10.18;9.23;;;11.50;99.90;;;12.40;89.53;97984.91;5250132;28;20203;-56
2021/09/04 03:59:14;;;;;;;9.85;9.05;;;11.60;99.90;;;12.40;89.80;97982.34;5252223;28;20649;-51
2021/09/04 04:01:48;;;;;;;10.00;9.20;;;11.60;99.90;;;12.41;90.05;97984.09;5262670;28;20215;-55
2021/09/04 04:04:22;;;;;;;10.02;9.23;;;11.60;99.90;;;12.41;89.84;97978.97;5255617;28;20196;-54
2021/09/04 04:06:55;;;;;;;8.93;8.18;;;11.60;99.90;;;12.42;89.51;97984.97;5265268;28;20200;-58
2021/09/04 04:09:28;;;;;;;10.18;9.23;;;11.60;99.90;;;12.42;89.34;97985.88;5256811;28;20221;-55
2021/09/04 04:12:01;;;;;;;9.70;8.90;;;11.60;99.90;;;12.33;88.83;97980.25;5249939;28;20668;-57
2021/09/04 04:14:34;;;;;;;10.38;9.15;;;11.50;99.90;;;12.22;88.58;97983.94;5255195;28;20839;-57
2021/09/04 04:17:08;;;;;;;9.52;8.63;;;11.40;99.90;;;12.14;88.40;97984.41;5249563;28;20299;-54
2021/09/04 04:19:41;;;;;;;10.57;9.60;;;11.30;99.90;;;12.08;89.33;97984.09;5249496;28;20227;-52
2021/09/04 04:22:14;;;;;;;10.38;9.43;;;11.30;99.90;;;12.11;89.13;97983.38;5251288;28;20225;-56
2021/09/04 04:24:47;;;;;;;10.55;9.65;;;11.30;99.90;;;12.05;89.50;97983.94;5251536;28;20197;-55
2021/09/04 04:27:20;;;;;;;9.68;8.90;;;11.30;99.90;;;12.09;89.60;97983.28;5249238;28;20208;-58
2021/09/04 04:29:53;;;;;;;10.50;9.57;;;11.30;99.90;;;12.03;89.41;97984.66;5248836;28;20225;-53
2021/09/04 04:32:28;;;;;;;10.18;9.27;;;11.20;99.90;;;12.02;89.59;97983.78;5249350;28;20200;-54
2021/09/04 04:35:00;;;;;;;9.52;8.80;;;11.20;99.90;;;11.99;89.37;97980.16;5257469;28;20207;-56
2021/09/04 04:37:34;;;;;;;10.07;9.27;;;11.20;99.90;;;12.02;89.72;97985.44;5270166;28;20290;-50
2021/09/04 04:40:09;;;;;;;10.07;9.20;;;11.20;99.90;;;11.96;89.53;97991.13;5267386;28;20215;-55
2021/09/04 04:42:42;;;;;;;10.63;9.68;;;11.20;99.90;;;11.97;89.41;97987.78;5257493;28;20224;-54
2021/09/04 04:45:15;;;;;;;11.45;10.27;;;11.20;99.90;;;11.95;90.00;97997.91;5252230;28;20192;-55
2021/09/04 04:47:50;;;;;;;10.57;9.63;;;11.20;99.90;;;11.92;89.70;97994.31;5269119;28;20204;-52
2021/09/04 04:50:23;;;;;;;10.82;9.95;;;11.10;99.90;;;11.96;90.21;97993.69;5256310;28;20219;-55
2021/09/04 04:52:56;;;;;;;10.77;9.80;;;11.20;99.90;;;12.01;90.33;97994.81;5249077;28;20218;-55
2021/09/04 04:55:29;;;;;;;10.43;9.57;;;11.20;99.90;;;12.03;90.55;98000.91;5248033;28;20192;-54
2021/09/04 04:58:02;;;;;;;10.25;9.45;;;11.30;99.90;;;12.03;90.05;98000.91;5259923;28;20199;-57
2021/09/04 05:00:35;;;;;;;9.93;8.93;;;11.20;99.90;;;12.05;89.32;98013.81;5264816;28;20215;-50
2021/09/04 05:03:10;;;;;;;10.45;9.45;;;11.20;99.90;;;12.09;89.40;98011.47;5269649;28;20226;-58
2021/09/04 05:05:43;;;;;;;9.52;8.63;;;11.30;99.90;;;12.08;89.46;98009.72;5265792;28;20188;-54
2021/09/04 05:08:16;;;;;;;10.40;9.40;;;11.20;99.90;;;12.07;89.26;98002.81;5248675;28;20200;-54
2021/09/04 05:10:49;;;;;;;10.10;9.23;;;11.20;99.90;;;12.05;88.61;98003.56;5248095;28;20235;-58
2021/09/04 05:13:22;;;;;;;10.80;9.90;;;11.20;99.90;;;12.08;89.03;98013.97;5249914;28;20197;-54
2021/09/04 05:15:55;;;;;;;9.20;8.50;;;11.20;99.90;;;12.12;88.61;98014.19;5246998;28;20196;-52
2021/09/04 05:18:30;;;;;;;9.45;8.55;;;11.30;99.90;;;12.07;88.37;98007.06;5264219;28;20200;-55
2021/09/04 05:21:03;;;;;;;9.07;8.30;;;11.20;99.90;;;12.11;87.94;98001.31;5267520;28;20887;-53
2021/09/04 05:23:36;;;;;;;10.13;9.18;;;11.20;99.90;;;12.10;87.73;98008.13;5249666;28;20224;-54
2021/09/04 05:26:10;;;;;;;8.90;8.10;;;11.20;99.90;;;12.08;87.95;98009.72;5246514;28;20210;-58
2021/09/04 05:28:43;;;;;;;8.73;7.88;;;11.20;99.90;;;12.14;86.68;98009.16;5254715;28;20192;-51
2021/09/04 05:31:16;;;;;;;8.65;7.90;;;11.10;99.90;;;12.13;87.03;98005.72;5264455;28;20206;-55
2021/09/04 05:33:51;;;;;;;13.55;12.35;;;11.10;99.90;;;12.14;86.29;98004.91;5247228;28;20958;-52
2021/09/04 05:36:24;;;;;;;13.70;12.27;;;11.10;99.90;;;12.18;85.79;98004.28;5256956;28;20292;-55
2021/09/04 05:38:59;;;;;;;8.65;7.95;;;11.20;99.90;;;12.35;86.03;98001.72;5246428;28;20212;-54
2021/09/04 05:41:32;;;;;;;8.43;7.80;;;11.30;99.90;;;12.60;85.72;98007.31;5247674;28;20200;-57
2021/09/04 05:44:05;;;;;;;10.90;8.82;;;11.50;99.90;;;12.78;84.85;98006.50;5248325;28;20987;-54
2021/09/04 05:46:38;;;;;;;10.20;9.25;;;11.70;99.90;;;13.00;84.86;98004.19;5261864;28;20202;-55
2021/09/04 05:49:12;;;;;;;9.32;8.52;;;12.00;99.90;;;13.36;82.61;98003.38;5267364;28;20220;-53
2021/09/04 05:51:45;;;;;;;9.15;8.35;;;12.20;99.90;;;13.77;80.54;98015.66;5259463;28;20207;-57
2021/09/04 05:54:18;;;;;;;9.45;8.65;;;12.50;99.90;;;14.05;79.73;98014.34;5258456;28;20222;-60
2021/09/04 05:56:51;;;;;;;9.73;8.93;;;12.70;99.90;;;14.47;78.31;98012.81;5265728;28;20218;-58
2021/09/04 05:59:24;;;;;;;9.23;8.40;;;13.10;99.90;;;14.81;76.33;97998.91;5260799;28;20254;-60
2021/09/04 06:01:57;;;;;;;9.57;8.75;;;13.40;99.90;;;15.10;75.29;98000.97;5261139;28;20201;-57
2021/09/04 06:04:36;;;;;;;9.55;8.63;;;13.70;99.90;;;15.68;72.83;97996.44;5247506;28;20221;-56
2021/09/04 06:07:09;;;;;;;8.32;7.63;;;14.00;99.90;;;16.08;71.05;97998.00;5248647;28;20207;-61
2021/09/04 06:09:42;;;;;;;8.82;8.00;;;14.30;99.90;;;16.55;69.71;97992.00;5249862;28;20673;-58
2021/09/04 06:12:15;;;;;;;9.05;8.25;;;14.60;99.90;;;16.79;68.92;97996.28;5257157;28;20275;-56
2021/09/04 06:14:48;;;;;;;8.95;8.25;;;14.90;99.90;;;17.13;65.84;97992.28;5267937;28;20196;-57
2021/09/04 06:17:21;;;;;;;8.80;8.10;;;15.20;99.90;;;16.96;65.90;97992.59;5253704;28;20193;-57
2021/09/04 06:19:55;;;;;;;9.52;8.63;;;15.20;99.90;;;17.02;66.96;97990.22;5246882;28;20224;-59
2021/09/04 06:22:28;;;;;;;8.85;8.13;;;15.30;99.90;;;17.24;67.21;97996.97;5246983;28;20206;-58
2021/09/04 06:25:02;;;;;;;11.23;8.57;;;15.40;99.90;;;17.53;65.76;97997.03;5246754;28;20697;-57
2021/09/04 06:27:35;;;;;;;9.85;9.05;;;15.60;99.90;;;17.62;65.20;97997.31;5246625;28;20200;-58
2021/09/04 06:30:09;;;;;;;9.25;8.45;;;15.70;99.90;;;17.98;64.96;98000.22;5250001;28;20239;-60
2021/09/04 06:32:42;;;;;;;9.02;8.23;;;16.00;99.90;;;18.02;64.64;97985.66;5246943;28;20193;-57
2021/09/04 06:35:17;;;;;;;8.20;7.60;;;16.30;99.90;;;18.51;63.15;97996.53;5246750;28;20723;-57
2021/09/04 06:37:50;;;;;;;9.20;8.30;;;16.60;99.90;;;18.98;60.79;97978.84;5266183;28;20217;-56
2021/09/04 06:40:23;;;;;;;8.80;7.97;;;17.00;99.90;;;19.06;60.61;97983.41;5267533;28;20216;-60
2021/09/04 06:42:56;;;;;;;9.05;8.25;;;17.00;99.90;;;19.31;60.46;97984.88;5257955;28;20201;-56
2021/09/04 06:45:29;;;;;;;8.52;7.82;;;17.20;99.90;;;19.26;59.92;97994.28;5248110;28;20202;-57
2021/09/04 06:48:02;;;;;;;9.32;8.52;;;17.30;99.90;;;19.51;58.06;97990.53;5246699;28;20211;-60
2021/09/04 06:50:37;;;;;;;9.00;8.25;;;17.60;99.90;;;19.65;58.19;97979.63;5249166;28;20216;-58
2021/09/04 06:53:10;;;;;;;8.38;7.63;;;17.60;99.90;;;19.97;57.97;97988.16;5267748;28;20195;-56
2021/09/04 06:55:43;;;;;;;9.10;8.40;;;17.70;99.90;;;20.05;58.03;97983.16;5267046;28;20207;-57
2021/09/04 06:58:16;;;;;;;9.18;8.38;;;17.90;99.90;;;20.51;55.94;97987.56;5267632;28;20218;-58
2021/09/04 07:00:49;;;;;;;8.68;7.97;;;18.10;99.90;;;20.61;56.90;97979.16;5257119;28;20230;-60
2021/09/04 07:03:22;;;;;;;8.45;7.75;;;18.30;99.90;;;21.06;54.94;97970.44;5267212;28;20394;-57
2021/09/04 07:05:57;;;;;;;8.82;8.02;;;18.40;99.90;;;21.68;53.92;97979.25;5258251;28;20196;-58
2021/09/04 07:08:30;;;;;;;8.35;7.60;;;18.90;99.90;;;21.62;53.36;97984.38;5267306;28;20203;-57
2021/09/04 07:11:03;;;;;;;7.90;7.22;;;19.00;99.90;;;22.18;52.25;97982.63;5267285;28;20673;-57
2021/09/04 07:13:36;;;;;;;7.95;7.25;;;19.30;99.90;;;22.71;50.97;97979.75;5246404;28;20211;-57
2021/09/04 07:16:09;;;;;;;7.90;7.18;;;19.60;99.90;;;22.73;50.94;97973.72;5247375;28;20193;-56
2021/09/04 07:18:42;;;;;;;8.52;7.25;;;19.60;99.90;;;22.98;49.51;97972.25;5246413;28;20226;-59
2021/09/04 07:21:17;;;;;;;7.85;7.10;;;19.70;99.90;;;23.06;49.53;97973.19;5249261;28;20603;-59
2021/09/04 07:23:50;;;;;;;7.90;7.20;;;19.80;99.90;;;22.94;49.70;97974.78;5259604;28;20214;-57
2021/09/04 07:26:23;;;;;;;7.78;6.97;;;20.00;99.90;;;22.28;52.69;97978.38;5250678;28;20211;-56
2021/09/04 07:28:56;;;;;;;8.15;7.45;;;20.10;99.90;;;22.14;51.66;97983.38;5250439;28;20216;-59
2021/09/04 07:31:29;;;;;;;7.68;7.03;;;20.10;99.90;;;21.89;52.84;97981.28;5250159;28;20211;-60
2021/09/04 07:34:02;;;;;;;7.65;7.03;;;19.90;99.90;;;21.75;54.27;97983.72;5264522;28;20218;-57
2021/09/04 07:36:36;;;;;;;7.85;7.15;;;20.00;99.90;;;21.86;53.77;97987.31;5271487;28;20200;-56
2021/09/04 07:39:09;;;;;;;7.53;6.93;;;20.10;99.90;;;22.18;53.34;97981.75;5271192;28;20214;-58
2021/09/04 07:41:42;;;;;;;8.32;7.55;;;20.50;99.90;;;22.16;52.51;97984.28;5268326;28;20218;-60
2021/09/04 07:44:15;;;;;;;7.85;7.15;;;20.50;99.90;;;21.85;53.95;97985.59;5270114;28;20215;-58
2021/09/04 07:46:48;;;;;;;7.60;7.00;;;20.40;99.90;;;21.66;55.41;97987.06;5268695;28;20200;-60
2021/09/04 07:49:21;;;;;;;7.57;6.97;;;20.50;99.90;;;21.61;55.07;97987.84;5250255;28;20231;-59
2021/09/04 07:51:56;;;;;;;6.95;6.45;;;20.50;99.90;;;22.15;54.60;97987.75;5253539;28;20195;-60
2021/09/04 07:54:29;;;;;;;7.60;6.95;;;20.90;99.90;;;22.14;54.32;97985.13;5249479;28;20191;-60
2021/09/04 07:57:02;;;;;;;7.40;6.80;;;21.10;99.90;;;22.25;54.37;97973.16;5250192;28;20585;-60
2021/09/04 07:59:35;;;;;;;7.22;6.53;;;21.20;99.90;;;22.66;53.13;97980.56;5249801;28;20216;-59
2021/09/04 08:02:08;;;;;;;7.78;7.10;;;21.70;99.90;;;22.89;52.77;97978.19;5260614;28;20196;-60
2021/09/04 08:04:42;;;;;;;7.50;6.90;;;21.90;99.90;;;23.17;52.96;97980.25;5269755;28;20214;-59
2021/09/04 08:07:16;;;;;;;7.40;6.65;;;22.10;99.90;;;23.29;51.71;97976.91;5261428;28;20297;-60
2021/09/04 08:09:49;;;;;;;6.70;6.18;;;22.30;99.90;;;23.33;51.97;97976.06;5249616;28;20219;-60
2021/09/04 08:12:23;;;;;;;7.43;6.82;;;22.20;99.90;;;23.49;51.61;97977.03;5261075;28;20206;-59
2021/09/04 08:14:56;;;;;;;7.30;6.60;;;22.30;99.90;;;23.44;52.26;97977.88;5270480;28;20562;-58
2021/09/04 08:17:28;;;;;;;7.70;7.03;;;22.40;99.90;;;23.55;50.49;97978.81;5270324;28;20691;-58
2021/09/04 08:20:02;;;;;;;7.70;6.88;;;22.50;99.80;;;23.45;51.30;97971.78;5270230;28;20230;-57
2021/09/04 08:22:37;;;;;;;6.93;6.32;;;22.20;99.90;;;23.59;51.74;97978.00;5266497;28;20193;-57
2021/09/04 08:25:11;;;;;;;7.40;6.72;;;22.50;99.90;;;23.57;51.70;97975.34;5249382;28;20220;-56
2021/09/04 08:27:44;;;;;;;7.15;6.45;;;22.60;99.90;;;23.47;52.10;97980.53;5259462;28;20246;-58
2021/09/04 08:30:17;;;;;;;7.10;6.40;;;22.40;99.90;;;23.69;52.97;97973.69;5270338;28;20220;-59
2021/09/04 08:32:50;;;;;;;7.75;6.95;;;22.80;99.90;;;23.87;51.93;97986.06;5269570;28;20204;-59
2021/09/04 08:35:23;;;;;;;7.18;6.55;;;23.20;99.90;;;24.20;51.80;97973.16;5269131;28;20202;-59
2021/09/04 08:37:58;;;;;;;6.78;6.18;;;23.30;99.90;;;24.40;51.19;97982.81;5259268;28;20661;-59
2021/09/04 08:40:31;;;;;;;6.93;6.32;;;23.50;99.90;;;24.59;50.63;97982.06;5270110;28;20253;-59
2021/09/04 08:43:04;;;;;;;7.78;6.50;;;23.70;99.80;;;24.61;50.62;97988.19;5268898;28;20200;-58
2021/09/04 08:45:38;;;;;;;6.97;6.30;;;23.80;99.30;;;24.77;51.19;97981.25;5269802;28;20227;-60
2021/09/04 08:48:11;;;;;;;6.68;6.07;;;24.00;99.50;;;24.95;50.15;97983.00;5263105;28;20200;-57
2021/09/04 08:50:44;;;;;;;6.80;6.22;;;24.30;98.80;;;24.95;50.18;97986.53;5248965;28;20235;-61
2021/09/04 08:53:19;;;;;;;7.30;6.60;;;24.30;98.80;;;25.21;49.24;97988.34;5259864;28;20208;-58
2021/09/04 08:55:52;;;;;;;6.88;6.10;;;24.50;98.50;;;25.43;48.43;97986.59;5269318;28;20195;-57
2021/09/04 08:58:25;;;;;;;6.97;6.28;;;24.70;98.20;;;25.58;48.69;97988.31;5264966;28;20199;-59
2021/09/04 09:00:58;;;;;;;6.82;6.32;;;24.90;97.80;;;25.74;48.09;97983.97;5265043;28;20228;-57
2021/09/04 09:03:31;;;;;;;6.65;6.10;;;25.00;97.70;;;25.89;47.16;97977.84;5268382;28;20249;-59
2021/09/04 09:06:05;;;;;;;6.95;6.35;;;25.20;96.70;;;25.99;47.15;97983.06;5266542;28;20227;-60
2021/09/04 09:08:44;;;;;;;6.13;5.53;;;25.30;96.70;;;26.11;46.87;97986.53;5253037;28;20206;-60
2021/09/04 09:11:17;;;;;;;6.63;6.05;;;25.40;96.60;;;26.16;46.28;97976.94;5247462;28;20200;-60
2021/09/04 09:13:55;;;;;;;6.57;5.97;;;25.40;96.00;;;26.18;46.00;97977.78;5249594;28;20295;-58
2021/09/04 09:16:28;;;;;;;6.65;6.05;;;25.40;95.80;;;26.31;44.57;97978.63;5246946;28;20320;-59
2021/09/04 09:19:03;;;;;;;6.32;5.72;;;25.50;95.00;;;26.33;44.37;97979.50;5259408;28;20281;-59
2021/09/04 09:21:41;;;;;;;5.97;5.38;;;25.50;94.60;;;26.32;43.74;97978.59;5260478;28;20219;-58
2021/09/04 09:24:18;;;;;;;6.25;5.47;;;25.60;94.00;;;26.27;43.95;97977.75;5252036;28;20696;-60
2021/09/04 09:26:53;;;;;;;5.70;5.30;;;25.70;94.10;;;26.33;43.53;97975.13;5247660;28;20199;-59
2021/09/04 09:29:31;;;;;;;6.28;5.78;;;25.60;93.90;;;26.33;43.77;97976.88;5247559;28;20697;-59
2021/09/04 09:32:07;;;;;;;5.82;5.43;;;25.60;94.10;;;26.40;44.20;97976.81;5248641;28;20307;-60
2021/09/04 09:34:43;;;;;;;5.63;5.13;;;25.90;94.00;;;26.59;43.95;97972.41;5252795;28;20571;-57
2021/09/04 09:37:17;;;;;;;6.85;6.25;;;25.90;93.80;;;26.61;42.20;97975.91;5267152;28;20191;-60
2021/09/04 09:39:51;;;;;;;6.03;5.53;;;26.00;92.60;;;26.72;40.65;97970.56;5250359;28;20219;-59
2021/09/04 09:42:24;;;;;;;6.20;5.60;;;26.10;91.40;;;26.66;39.32;97979.34;5249202;28;20195;-60
2021/09/04 09:44:57;;;;;;;5.57;5.07;;;26.20;90.20;;;26.55;40.69;97980.28;5250492;28;20222;-57
2021/09/04 09:47:30;;;;;;;5.88;5.30;;;26.10;90.80;;;26.60;40.38;97974.13;5258621;28;20645;-59
2021/09/04 09:50:04;;;;;;;5.68;5.18;;;26.10;90.90;;;26.63;41.48;97979.38;5266195;28;20223;-60
2021/09/04 09:52:37;;;;;;;5.80;5.38;;;26.00;91.40;;;26.69;40.71;97981.09;5261845;28;20201;-58
2021/09/04 09:55:12;;;;;;;6.60;6.10;;;25.90;91.30;;;26.57;40.94;97973.28;5255598;28;20199;-59
2021/09/04 09:57:46;;;;;;;5.95;5.40;;;25.70;91.40;;;26.63;41.43;97974.13;5260861;28;20210;-60
2021/09/04 10:00:19;;;;;;;6.13;5.53;;;25.90;91.80;;;26.58;39.49;97972.41;5266585;28;20219;-59
2021/09/04 10:03:00;;;;;;;7.10;6.15;;;25.90;90.10;;;26.58;40.36;97975.88;5268134;28;20199;-59
2021/09/04 10:05:34;;;;;;;5.60;5.20;;;25.80;90.90;;;26.49;39.81;97966.28;5260473;28;20215;-60
2021/09/04 10:08:07;;;;;;;6.03;5.53;;;25.60;90.40;;;26.37;41.44;97971.59;5248281;28;20204;-59
2021/09/04 10:10:43;;;;;;;5.95;5.35;;;25.60;91.40;;;26.01;42.19;97967.34;5256173;28;20222;-59
2021/09/04 10:13:17;;;;;;;5.97;5.45;;;25.30;91.70;;;26.16;41.36;97969.06;5254643;28;20195;-59
2021/09/04 10:15:55;;;;;;;6.18;5.68;;;25.50;91.10;;;26.22;40.85;97961.19;5260532;28;20211;-59
2021/09/04 10:18:28;;;;;;;5.93;5.43;;;25.40;90.80;;;26.17;41.40;97957.69;5261430;28;20444;-60
2021/09/04 10:21:08;;;;;;;6.10;5.60;;;25.50;91.20;;;26.35;41.73;97962.84;5265773;28;20622;-61
2021/09/04 10:23:48;;;;;;;5.70;5.30;;;25.70;91.30;;;26.37;41.00;97955.84;5249950;28;20196;-61
2021/09/04 10:26:31;;;;;;;5.93;5.32;;;25.60;91.00;;;26.40;40.95;97960.22;5248731;28;20738;-60
2021/09/04 10:29:08;;;;;;;6.43;5.88;;;25.70;91.10;;;26.46;41.21;97957.56;5261140;28;20211;-58
2021/09/04 10:32:00;;;;;;;6.13;5.38;;;25.70;90.80;;;26.70;39.08;97954.88;5262163;28;20539;-59
2021/09/04 10:34:36;;;;;;;5.65;5.15;;;26.00;89.40;;;26.72;39.04;97952.22;5249234;28;20206;-59
2021/09/04 10:37:18;;;;;;;5.60;5.10;;;26.10;88.90;;;26.62;39.61;97946.16;5253341;28;20191;-59
2021/09/04 10:39:58;;;;;;;5.40;4.90;;;26.00;89.40;;;26.65;39.13;97946.16;5251217;28;20708;-58
2021/09/04 10:42:36;;;;;;;5.18;4.78;;;25.90;89.50;;;26.51;39.06;97948.84;5255601;28;20203;-59